McKinney's Hourly Summary for Monday, March 13, 2017
Hour Temp
(f)
RH
(%)
Solar Rad.
(MJ/m2)
Rainfall
(in)
Wind
(mph)
3/13/2017 12:00 AM 46 79 0 0 0
3/13/2017 1:00 AM 47 78 0 0 0.64
3/13/2017 2:00 AM 48 79 0 0 0.2
3/13/2017 3:00 AM 48 79 0 0 0.82
3/13/2017 4:00 AM 48 79 0 0 0.39
3/13/2017 5:00 AM 47 83 0.01 0 0.36
3/13/2017 6:00 AM 47 99 0.01 0.01 0.7
3/13/2017 7:00 AM 47 99 0.01 0 0.08
3/13/2017 8:00 AM 47 99 0.02 0 0
3/13/2017 9:00 AM 47 99 0.06 0 0
3/13/2017 10:00 AM 48 95 0.23 0 0.44
3/13/2017 11:00 AM 50 79 0.8 0 4.23
3/13/2017 12:00 PM 51 70 0.86 0 5.34
3/13/2017 1:00 PM 52 62 1.5 0 5.97
3/13/2017 2:00 PM 57 51 2.61 0 5.76
3/13/2017 3:00 PM 59 41 2.59 0 7.36
3/13/2017 4:00 PM 59 38 2.32 0 7.96
3/13/2017 5:00 PM 59 37 1.79 0 7.58
3/13/2017 6:00 PM 58 33 1.03 0 8.03
3/13/2017 7:00 PM 55 30 0.39 0 7.79
3/13/2017 8:00 PM 51 31 0.03 0 5.26
3/13/2017 9:00 PM 49 35 0 0 4.24
3/13/2017 10:00 PM 47 40 0 0 3.72
3/13/2017 11:00 PM 44 45 0 0 1.4
Data Summary 50 65 14.26 0.01 3.26